createdAt,value
2018-09-27T00:00:02.315Z,52.20
2018-09-27T00:01:02.296Z,53.25
2018-09-27T00:02:02.269Z,53.54
2018-09-27T00:03:02.246Z,53.83
2018-09-27T00:04:02.225Z,53.92
2018-09-27T00:05:02.198Z,53.54
2018-09-27T00:06:02.175Z,53.83
2018-09-27T00:07:02.152Z,54.02
2018-09-27T00:08:02.129Z,54.37
2018-09-27T00:09:02.107Z,54.75
2018-09-27T00:10:02.083Z,53.70
2018-09-27T00:11:02.060Z,53.13
2018-09-27T00:12:02.039Z,52.66
2018-09-27T00:13:02.014Z,52.30
2018-09-27T00:14:01.991Z,52.28
2018-09-27T00:15:01.966Z,51.99
2018-09-27T00:16:01.944Z,52.28
2018-09-27T00:17:01.918Z,52.18
2018-09-27T00:18:01.895Z,52.09
2018-09-27T00:19:01.872Z,51.99
2018-09-27T00:20:01.851Z,51.80
2018-09-27T00:21:01.825Z,50.85
2018-09-27T00:22:03.304Z,49.42
2018-09-27T00:23:01.779Z,49.13
2018-09-27T00:24:01.756Z,49.42
2018-09-27T00:25:01.737Z,47.89
2018-09-27T00:26:01.709Z,47.13
2018-09-27T00:27:01.685Z,46.28
2018-09-27T00:28:01.662Z,46.37
2018-09-27T00:29:01.637Z,46.37
2018-09-27T00:30:01.617Z,46.18
2018-09-27T00:31:01.596Z,45.89
2018-09-27T00:32:01.569Z,45.89
2018-09-27T00:33:01.547Z,45.42
2018-09-27T00:34:01.522Z,45.14
2018-09-27T00:35:01.498Z,45.04
2018-09-27T00:36:01.476Z,44.94
2018-09-27T00:37:01.452Z,45.42
2018-09-27T00:38:01.429Z,45.61
2018-09-27T00:39:01.405Z,46.47
2018-09-27T00:40:01.381Z,47.71
2018-09-27T00:41:01.357Z,49.13
2018-09-27T00:42:01.333Z,49.51
2018-09-27T00:43:01.312Z,49.61
2018-09-27T00:44:01.293Z,49.51
2018-09-27T00:45:01.264Z,49.51
2018-09-27T00:46:01.240Z,49.42
2018-09-27T00:47:01.216Z,49.42
2018-09-27T00:48:01.193Z,49.32
2018-09-27T00:49:01.169Z,48.47
2018-09-27T00:50:01.146Z,48.47
2018-09-27T00:51:01.123Z,49.23
2018-09-27T00:52:01.103Z,49.13
2018-09-27T00:53:01.076Z,48.37
2018-09-27T00:54:01.052Z,47.71
2018-09-27T00:55:01.028Z,46.66
2018-09-27T00:56:01.004Z,46.66
2018-09-27T00:57:00.980Z,47.23
2018-09-27T00:58:00.957Z,47.89
2018-09-27T00:59:01.685Z,47.89
2018-09-27T01:00:00.910Z,48.47
2018-09-27T01:01:00.886Z,47.99
2018-09-27T01:02:00.863Z,47.13
2018-09-27T01:03:00.840Z,46.84
2018-09-27T01:04:00.817Z,46.94
2018-09-27T01:05:00.792Z,46.66
2018-09-27T01:06:00.770Z,46.75
2018-09-27T01:07:00.747Z,47.13
2018-09-27T01:08:00.722Z,47.71
2018-09-27T01:09:00.697Z,47.99
2018-09-27T01:10:00.677Z,48.08
2018-09-27T01:11:00.651Z,47.89
2018-09-27T01:12:00.628Z,47.04
2018-09-27T01:13:00.603Z,46.84
2018-09-27T01:14:00.580Z,46.56
2018-09-27T01:15:00.557Z,46.28
2018-09-27T01:16:00.533Z,45.70
2018-09-27T01:17:00.510Z,45.70
2018-09-27T01:18:00.487Z,45.61
2018-09-27T01:19:00.465Z,45.70
2018-09-27T01:20:00.439Z,46.09
2018-09-27T01:21:00.415Z,46.37
2018-09-27T01:22:00.391Z,46.28
2018-09-27T01:23:00.371Z,46.37
2018-09-27T01:24:00.345Z,46.09
2018-09-27T01:25:00.321Z,45.89
2018-09-27T01:26:00.299Z,45.70
2018-09-27T01:27:00.273Z,46.09
2018-09-27T01:28:00.251Z,45.89
2018-09-27T01:29:00.227Z,45.42
2018-09-27T01:30:00.204Z,45.61
2018-09-27T01:31:00.178Z,45.32
2018-09-27T01:32:00.155Z,45.14
2018-09-27T01:33:00.135Z,44.66
2018-09-27T01:34:00.109Z,44.94
2018-09-27T01:35:00.087Z,45.04
2018-09-27T01:36:00.061Z,45.42
2018-09-27T01:37:00.039Z,45.61
2018-09-27T01:38:00.013Z,45.89
2018-09-27T01:38:59.990Z,45.89
2018-09-27T01:39:59.966Z,46.09
2018-09-27T01:41:00.693Z,46.37
2018-09-27T01:41:59.919Z,45.89
2018-09-27T01:42:59.894Z,45.99
2018-09-27T01:43:59.871Z,45.89
2018-09-27T01:44:59.848Z,46.18
2018-09-27T01:45:59.825Z,46.37
2018-09-27T01:46:59.864Z,46.37
2018-09-27T01:47:59.778Z,46.37
2018-09-27T01:48:59.752Z,46.28
2018-09-27T01:49:59.730Z,46.37
2018-09-27T01:50:59.706Z,46.37
2018-09-27T01:51:59.682Z,46.47
2018-09-27T01:52:59.658Z,47.23
2018-09-27T01:53:59.633Z,47.13
2018-09-27T01:54:59.614Z,47.13
2018-09-27T01:55:59.589Z,47.23
2018-09-27T01:57:01.065Z,47.04
2018-09-27T01:57:59.539Z,47.04
2018-09-27T01:58:59.515Z,47.23
2018-09-27T01:59:59.492Z,46.92
2018-09-27T02:00:59.470Z,46.75
2018-09-27T02:01:59.449Z,46.92
2018-09-27T02:02:59.420Z,46.75
2018-09-27T02:03:59.402Z,46.73
2018-09-27T02:04:59.374Z,46.73
2018-09-27T02:05:59.352Z,46.73
2018-09-27T02:06:59.325Z,47.02
2018-09-27T02:07:59.301Z,47.39
2018-09-27T02:08:59.279Z,47.39
2018-09-27T02:09:59.255Z,47.11
2018-09-27T02:10:59.230Z,46.63
2018-09-27T02:13:43.763Z,46.83
2018-09-27T02:14:42.989Z,47.20
2018-09-27T02:15:42.966Z,46.73
2018-09-27T02:16:42.942Z,46.54
2018-09-27T02:17:42.918Z,46.92
2018-09-27T02:18:42.893Z,47.02
2018-09-27T02:19:42.870Z,46.83
2018-09-27T02:20:42.846Z,46.73
2018-09-27T02:21:42.822Z,47.30
2018-09-27T02:22:42.798Z,47.68
2018-09-27T02:23:42.775Z,48.06
2018-09-27T02:24:43.504Z,48.06
2018-09-27T02:25:42.727Z,48.82
2018-09-27T02:26:42.702Z,49.20
2018-09-27T02:27:42.679Z,49.40
2018-09-27T02:28:42.655Z,49.30
2018-09-27T02:29:42.632Z,49.77
2018-09-27T02:30:42.608Z,49.40
2018-09-27T02:31:42.586Z,49.49
2018-09-27T02:32:42.562Z,48.63
2018-09-27T02:33:42.563Z,48.06
2018-09-27T02:34:42.516Z,47.20
2018-09-27T02:35:43.992Z,47.11
2018-09-27T02:36:42.465Z,46.63
2018-09-27T02:37:42.444Z,47.30
2018-09-27T02:38:42.417Z,46.73
2018-09-27T02:39:42.396Z,46.92
2018-09-27T02:40:42.370Z,46.73
2018-09-27T02:41:42.345Z,47.11
2018-09-27T02:42:42.322Z,47.30
2018-09-27T02:43:42.304Z,46.35
2018-09-27T02:44:42.279Z,46.06
2018-09-27T02:45:42.251Z,46.06
2018-09-27T02:46:42.227Z,45.97
2018-09-27T02:47:42.205Z,46.06
2018-09-27T02:48:42.181Z,46.44
2018-09-27T02:49:42.157Z,47.11
2018-09-27T02:50:42.132Z,46.92
2018-09-27T02:51:42.108Z,47.78
2018-09-27T02:52:42.085Z,47.78
2018-09-27T02:53:42.062Z,48.63
2018-09-27T02:54:42.037Z,49.49
2018-09-27T02:55:42.012Z,49.87
2018-09-27T02:56:41.989Z,50.82
2018-09-27T02:57:42.716Z,50.99
2018-09-27T02:58:41.944Z,51.46
2018-09-27T02:59:41.919Z,50.82
2018-09-27T03:00:41.893Z,50.63
2018-09-27T03:01:41.869Z,49.85
2018-09-27T03:02:41.845Z,49.37
2018-09-27T03:03:41.821Z,49.18
2018-09-27T03:04:41.798Z,48.42
2018-09-27T03:05:41.774Z,48.23
2018-09-27T03:06:41.751Z,48.32
2018-09-27T03:07:41.726Z,48.80
2018-09-27T03:08:41.705Z,48.80
2018-09-27T03:09:41.679Z,48.61
2018-09-27T03:10:41.654Z,48.32
2018-09-27T03:11:41.631Z,48.03
2018-09-27T03:12:41.607Z,47.18
2018-09-27T03:13:41.599Z,46.51
2018-09-27T03:14:41.559Z,45.47
2018-09-27T03:15:41.536Z,44.71
2018-09-27T03:16:41.512Z,43.47
2018-09-27T03:17:41.487Z,42.52
2018-09-27T03:18:41.464Z,42.52
2018-09-27T03:19:41.446Z,42.33
2018-09-27T03:20:41.418Z,42.24
2018-09-27T03:21:41.392Z,41.95
2018-09-27T03:22:41.367Z,41.28
2018-09-27T03:23:42.844Z,41.00
2018-09-27T03:24:41.321Z,41.00
2018-09-27T03:25:41.295Z,41.00
2018-09-27T03:26:41.275Z,41.28
2018-09-27T03:27:41.248Z,40.81
2018-09-27T03:28:41.224Z,41.19
2018-09-27T03:29:41.199Z,40.71
2018-09-27T03:30:41.188Z,41.00
2018-09-27T03:31:41.166Z,41.47
2018-09-27T03:32:41.130Z,41.00
2018-09-27T03:33:41.103Z,41.09
2018-09-27T03:34:41.080Z,41.28
2018-09-27T03:35:41.070Z,41.47
2018-09-27T03:36:41.031Z,41.57
2018-09-27T03:37:41.009Z,40.90
2018-09-27T03:38:40.983Z,41.09
2018-09-27T03:39:41.012Z,41.19
2018-09-27T03:40:41.007Z,40.71
2018-09-27T03:41:40.911Z,39.95
2018-09-27T03:42:40.887Z,40.23
2018-09-27T03:43:40.863Z,40.14
2018-09-27T03:44:40.839Z,39.67
2018-09-27T03:45:40.816Z,39.86
2018-09-27T03:46:40.791Z,39.86
2018-09-27T03:47:40.767Z,40.05
2018-09-27T03:48:40.756Z,40.14
2018-09-27T03:49:40.730Z,40.14
2018-09-27T03:50:40.694Z,39.95
2018-09-27T03:51:40.670Z,40.71
2018-09-27T03:52:40.647Z,40.90
2018-09-27T03:53:40.622Z,41.28
2018-09-27T03:54:40.598Z,41.19
2018-09-27T03:55:40.575Z,41.28
2018-09-27T03:56:42.053Z,41.57
2018-09-27T03:57:40.525Z,42.33
2018-09-27T03:58:40.501Z,42.24
2018-09-27T03:59:40.482Z,42.24
2018-09-27T04:00:40.459Z,42.24
2018-09-27T04:01:40.430Z,42.14
2018-09-27T04:02:40.407Z,42.52
2018-09-27T04:03:40.381Z,42.24
2018-09-27T04:04:40.359Z,42.52
2018-09-27T04:05:40.333Z,42.31
2018-09-27T04:06:40.330Z,42.61
2018-09-27T04:07:40.285Z,42.14
2018-09-27T04:08:40.261Z,41.85
2018-09-27T04:09:40.239Z,41.76
2018-09-27T04:10:40.213Z,42.21
2018-09-27T04:11:40.191Z,41.95
2018-09-27T04:12:40.235Z,41.38
2018-09-27T04:13:40.141Z,41.09
2018-09-27T04:14:40.119Z,41.09
2018-09-27T04:15:40.099Z,41.19
2018-09-27T04:16:40.068Z,41.07
2018-09-27T04:17:40.043Z,41.09
2018-09-27T04:18:40.770Z,41.47
2018-09-27T04:19:39.996Z,41.57
2018-09-27T04:20:39.972Z,41.47
2018-09-27T04:21:39.954Z,41.47
2018-09-27T04:22:39.923Z,41.38
2018-09-27T04:23:39.901Z,41.55
2018-09-27T04:24:39.874Z,41.95
2018-09-27T04:25:39.852Z,41.95
2018-09-27T04:26:39.826Z,41.74
2018-09-27T04:27:39.837Z,41.95
2018-09-27T04:28:39.777Z,41.93
2018-09-27T04:29:40.504Z,41.95
2018-09-27T04:30:39.729Z,42.31
2018-09-27T04:31:39.705Z,42.04
2018-09-27T04:32:39.681Z,42.21
2018-09-27T04:33:39.679Z,42.33
2018-09-27T04:34:39.631Z,42.21
2018-09-27T04:35:39.609Z,42.21
2018-09-27T04:36:39.584Z,42.24
2018-09-27T04:37:39.560Z,42.50
2018-09-27T04:38:39.536Z,42.24
2018-09-27T04:39:39.545Z,42.43
2018-09-27T04:40:39.488Z,42.97
2018-09-27T04:41:39.463Z,43.26
2018-09-27T04:42:39.439Z,43.64
2018-09-27T04:43:39.415Z,43.83
2018-09-27T04:44:39.391Z,43.83
2018-09-27T04:45:39.396Z,43.73
2018-09-27T04:46:39.459Z,43.19
2018-09-27T04:47:39.317Z,42.79
2018-09-27T04:48:39.292Z,42.40
2018-09-27T04:49:39.267Z,42.40
2018-09-27T04:50:39.994Z,42.04
2018-09-27T04:51:39.259Z,42.21
2018-09-27T04:52:39.199Z,42.14
2018-09-27T04:53:39.171Z,41.66
2018-09-27T04:54:39.148Z,41.47
2018-09-27T04:55:39.123Z,41.47
2018-09-27T04:56:39.098Z,41.38
2018-09-27T04:57:39.074Z,41.46
2018-09-27T04:58:39.049Z,41.85
2018-09-27T04:59:39.026Z,42.31
2018-09-27T05:00:39.001Z,42.50
2018-09-27T05:01:38.975Z,42.24
2018-09-27T05:02:38.952Z,42.33
2018-09-27T05:03:38.943Z,43.16
2018-09-27T05:04:38.906Z,43.28
2018-09-27T05:05:38.920Z,43.09
2018-09-27T05:06:41.107Z,42.90
2018-09-27T05:07:38.832Z,42.61
2018-09-27T05:08:38.808Z,42.61
2018-09-27T05:09:38.897Z,42.61
2018-09-27T05:10:38.759Z,43.09
2018-09-27T05:11:38.735Z,42.99
2018-09-27T05:12:40.211Z,42.99
2018-09-27T05:13:38.687Z,42.99
2018-09-27T05:14:38.660Z,43.16
2018-09-27T05:15:38.671Z,43.09
2018-09-27T05:16:38.613Z,43.09
2018-09-27T05:17:38.589Z,43.09
2018-09-27T05:18:38.564Z,43.09
2018-09-27T05:19:38.547Z,42.69
2018-09-27T05:20:38.630Z,42.50
2018-09-27T05:21:38.541Z,42.90
2018-09-27T05:22:38.468Z,42.43
2018-09-27T05:23:38.443Z,42.14
2018-09-27T05:24:38.418Z,41.47
2018-09-27T05:25:38.394Z,41.38
2018-09-27T05:26:38.369Z,41.09
2018-09-27T05:27:38.364Z,41.28
2018-09-27T05:28:38.325Z,41.09
2018-09-27T05:29:38.297Z,41.00
2018-09-27T05:30:38.272Z,40.52
2018-09-27T05:31:38.249Z,40.62
2018-09-27T05:32:38.225Z,40.33
2018-09-27T05:33:38.265Z,40.05
2018-09-27T05:34:38.174Z,39.76
2018-09-27T05:35:38.152Z,39.48
2018-09-27T05:36:38.127Z,39.38
2018-09-27T05:37:38.103Z,39.48
2018-09-27T05:38:38.078Z,39.28
2018-09-27T05:39:38.062Z,39.09
2018-09-27T05:40:38.031Z,39.09
2018-09-27T05:41:38.003Z,39.19
2018-09-27T05:42:37.981Z,39.19
2018-09-27T05:43:37.957Z,39.28
2018-09-27T05:44:37.931Z,39.28
2018-09-27T05:45:37.912Z,39.09
2018-09-27T05:46:37.883Z,39.38
2018-09-27T05:47:37.859Z,39.38
2018-09-27T05:48:37.833Z,39.67
2018-09-27T05:49:37.809Z,39.48
2018-09-27T05:50:37.785Z,39.76
2018-09-27T05:51:37.772Z,39.95
2018-09-27T05:52:37.738Z,40.14
2018-09-27T05:53:37.716Z,40.52
2018-09-27T05:54:37.692Z,40.62
2018-09-27T05:55:37.665Z,41.00
2018-09-27T05:56:37.641Z,41.38
2018-09-27T05:57:37.683Z,41.38
2018-09-27T05:58:37.591Z,41.95
2018-09-27T05:59:37.570Z,42.43
2018-09-27T06:00:37.543Z,42.52
2018-09-27T06:01:37.519Z,42.64
2018-09-27T06:02:37.494Z,43.02
2018-09-27T06:03:37.533Z,44.06
2018-09-27T06:04:37.446Z,44.26
2018-09-27T06:05:37.422Z,44.71
2018-09-27T06:06:37.397Z,45.47
2018-09-27T06:07:37.375Z,45.97
2018-09-27T06:08:37.351Z,45.87
2018-09-27T06:09:37.350Z,46.83
2018-09-27T06:10:37.300Z,47.30
2018-09-27T06:11:37.277Z,47.97
2018-09-27T06:12:37.253Z,48.54
2018-09-27T06:13:37.228Z,49.11
2018-09-27T06:14:37.205Z,49.58
2018-09-27T06:15:37.278Z,49.49
2018-09-27T06:16:37.157Z,49.49
2018-09-27T06:17:37.133Z,50.06
2018-09-27T06:18:37.109Z,50.73
2018-09-27T06:19:37.090Z,50.15
2018-09-27T06:20:37.062Z,49.68
2018-09-27T06:21:37.098Z,50.06
2018-09-27T06:22:37.012Z,50.44
2018-09-27T06:23:36.989Z,50.82
2018-09-27T06:24:36.965Z,51.10
2018-09-27T06:25:36.941Z,51.87
2018-09-27T06:26:36.917Z,52.63
2018-09-27T06:27:36.906Z,52.25
2018-09-27T06:28:36.871Z,52.53
2018-09-27T06:29:36.844Z,52.82
2018-09-27T06:30:36.823Z,53.30
2018-09-27T06:31:36.798Z,53.58
2018-09-27T06:32:36.775Z,53.32
2018-09-27T06:33:36.864Z,53.04
2018-09-27T06:34:36.727Z,53.42
2018-09-27T06:35:36.703Z,53.89
2018-09-27T06:36:36.679Z,54.72
2018-09-27T06:37:36.654Z,54.08
2018-09-27T06:38:36.686Z,54.08
2018-09-27T06:39:36.611Z,53.70
2018-09-27T06:40:36.584Z,54.27
2018-09-27T06:41:36.560Z,54.18
2018-09-27T06:42:36.538Z,53.89
2018-09-27T06:43:36.514Z,53.61
2018-09-27T06:44:36.539Z,53.70
2018-09-27T06:45:36.466Z,53.32
2018-09-27T06:46:36.443Z,53.23
2018-09-27T06:47:36.420Z,53.23
2018-09-27T06:48:36.406Z,53.70
2018-09-27T06:49:39.380Z,53.52
2018-09-27T06:50:36.377Z,53.32
2018-09-27T06:51:36.326Z,53.23
2018-09-27T06:52:36.305Z,52.97
2018-09-27T06:53:36.279Z,53.44
2018-09-27T06:54:36.259Z,53.25
2018-09-27T06:55:38.697Z,53.64
2018-09-27T06:56:36.305Z,54.21
2018-09-27T06:57:36.186Z,54.49
2018-09-27T06:58:36.164Z,54.59
2018-09-27T06:59:36.141Z,54.59
2018-09-27T07:00:36.117Z,55.07
2018-09-27T07:01:36.094Z,54.02
2018-09-27T07:02:36.116Z,53.83
2018-09-27T07:03:36.048Z,54.78
2018-09-27T07:04:36.025Z,55.19
2018-09-27T07:05:36.001Z,55.95
2018-09-27T07:06:35.978Z,57.19
2018-09-27T07:07:35.957Z,57.48
2018-09-27T07:08:35.966Z,58.04
2018-09-27T07:09:35.911Z,61.00
2018-09-27T07:10:35.887Z,65.20
2018-09-27T07:11:35.865Z,67.20
2018-09-27T07:12:35.854Z,66.82
2018-09-27T07:13:35.818Z,67.58
2018-09-27T07:14:35.865Z,67.39
2018-09-27T07:15:35.793Z,67.77
2018-09-27T07:16:35.751Z,67.39
2018-09-27T07:17:36.477Z,68.15
2018-09-27T07:18:35.732Z,68.82
2018-09-27T07:19:35.682Z,68.91
2018-09-27T07:20:35.692Z,68.91
2018-09-27T07:21:35.636Z,69.01
2018-09-27T07:22:35.613Z,68.91
2018-09-27T07:23:35.591Z,69.87
2018-09-27T07:24:35.568Z,72.06
2018-09-27T07:25:35.545Z,72.06
2018-09-27T07:26:35.548Z,73.30
2018-09-27T07:27:35.498Z,72.76
2018-09-27T07:28:35.477Z,72.67
2018-09-27T07:29:35.453Z,75.15
2018-09-27T07:30:35.431Z,74.96
2018-09-27T07:31:35.408Z,75.53
2018-09-27T07:32:35.512Z,75.53
2018-09-27T07:33:35.362Z,76.01
2018-09-27T07:34:35.340Z,76.67
2018-09-27T07:35:35.318Z,76.77
2018-09-27T07:36:35.365Z,77.34
2018-09-27T07:37:35.272Z,77.62
2018-09-27T07:38:37.569Z,77.57
2018-09-27T07:39:35.227Z,77.76
2018-09-27T07:40:35.207Z,78.14
2018-09-27T07:41:35.182Z,79.96
2018-09-27T07:42:35.210Z,79.19
2018-09-27T07:43:35.137Z,79.00
2018-09-27T07:44:35.202Z,81.67
2018-09-27T07:45:35.092Z,80.72
2018-09-27T07:46:35.071Z,79.86
2018-09-27T07:47:35.048Z,79.86
2018-09-27T07:48:35.094Z,81.77
2018-09-27T07:49:35.002Z,81.96
2018-09-27T07:50:35.044Z,81.20
2018-09-27T07:51:34.959Z,81.67
2018-09-27T07:52:34.942Z,82.15
2018-09-27T07:53:34.914Z,82.34
2018-09-27T07:54:35.025Z,83.11
2018-09-27T07:55:35.621Z,81.77
2018-09-27T07:56:34.894Z,81.20
2018-09-27T07:57:34.825Z,81.38
2018-09-27T07:58:34.803Z,81.77
2018-09-27T07:59:34.780Z,79.67
2018-09-27T08:00:34.758Z,79.28
2018-09-27T08:01:34.735Z,78.81
2018-09-27T08:02:34.743Z,79.10
2018-09-27T08:03:34.692Z,78.14
2018-09-27T08:04:34.668Z,79.80
2018-09-27T08:05:34.645Z,79.86
2018-09-27T08:06:34.628Z,81.33
2018-09-27T08:07:34.602Z,81.81
2018-09-27T08:08:34.635Z,81.43
2018-09-27T08:09:34.556Z,81.81
2018-09-27T08:10:34.534Z,82.57
2018-09-27T08:11:34.572Z,82.00
2018-09-27T08:12:34.491Z,82.76
2018-09-27T08:13:34.469Z,83.14
2018-09-27T08:14:34.458Z,83.62
2018-09-27T08:15:34.424Z,84.23
2018-09-27T08:16:34.402Z,84.43
2018-09-27T08:17:34.380Z,84.43
2018-09-27T08:18:34.358Z,85.67
2018-09-27T08:19:34.337Z,87.10
2018-09-27T08:20:34.390Z,89.78
2018-09-27T08:21:36.544Z,91.88
2018-09-27T08:22:34.270Z,91.30
2018-09-27T08:23:34.248Z,91.30
2018-09-27T08:24:34.226Z,91.50
2018-09-27T08:25:34.204Z,91.30
2018-09-27T08:26:34.253Z,91.45
2018-09-27T08:27:35.664Z,91.54
2018-09-27T08:28:34.139Z,91.35
2018-09-27T08:29:34.116Z,92.40
2018-09-27T08:30:34.112Z,92.40
2018-09-27T08:31:34.074Z,92.97
2018-09-27T08:32:34.084Z,94.02
2018-09-27T08:33:34.780Z,93.74
2018-09-27T08:34:34.014Z,94.22
2018-09-27T08:35:33.986Z,94.79
2018-09-27T08:36:33.965Z,94.36
2018-09-27T08:37:33.943Z,93.31
2018-09-27T08:38:33.954Z,93.79
2018-09-27T08:39:33.899Z,93.02
2018-09-27T08:40:33.879Z,92.93
2018-09-27T08:41:33.857Z,94.55
2018-09-27T08:42:33.835Z,96.75
2018-09-27T08:43:33.813Z,96.75
2018-09-27T08:44:34.743Z,98.95
2018-09-27T08:45:33.921Z,99.71
2018-09-27T08:46:33.748Z,99.10
2018-09-27T08:47:33.728Z,99.48
2018-09-27T08:48:33.706Z,99.38
2018-09-27T08:49:33.683Z,99.48
2018-09-27T08:50:33.661Z,99.99
2018-09-27T08:51:33.672Z,99.99
2018-09-27T08:52:33.620Z,99.99
2018-09-27T08:53:33.597Z,99.99
2018-09-27T08:54:33.576Z,99.99
2018-09-27T08:55:33.631Z,99.99
2018-09-27T08:56:33.688Z,99.99
2018-09-27T08:57:33.579Z,99.99
2018-09-27T08:58:33.490Z,99.99
2018-09-27T08:59:33.469Z,99.99
2018-09-27T09:00:33.449Z,99.99
2018-09-27T09:01:33.490Z,99.99
2018-09-27T09:02:33.405Z,99.99
2018-09-27T09:03:33.501Z,99.99
2018-09-27T09:04:33.362Z,99.99
2018-09-27T09:05:33.340Z,99.99
2018-09-27T09:06:33.319Z,99.99
2018-09-27T09:07:33.358Z,99.99
2018-09-27T09:08:33.280Z,99.99
2018-09-27T09:09:33.261Z,99.99
2018-09-27T09:10:33.234Z,99.99
2018-09-27T09:11:33.213Z,99.99
2018-09-27T09:12:33.193Z,99.99
2018-09-27T09:13:33.234Z,99.99
2018-09-27T09:14:33.149Z,99.99
2018-09-27T09:15:33.177Z,99.99
2018-09-27T09:16:33.110Z,99.99
2018-09-27T09:17:33.085Z,99.99
2018-09-27T09:18:33.067Z,99.99
2018-09-27T09:19:33.054Z,99.99
2018-09-27T09:20:33.023Z,99.99
2018-09-27T09:21:33.060Z,99.99
2018-09-27T09:22:35.233Z,99.99
2018-09-27T09:23:32.960Z,99.99
2018-09-27T09:24:33.015Z,99.99
2018-09-27T09:25:32.949Z,99.99
2018-09-27T09:26:32.896Z,99.99
2018-09-27T09:27:32.906Z,99.99
2018-09-27T09:28:32.887Z,99.99
2018-09-27T09:29:32.858Z,99.99
2018-09-27T09:30:32.813Z,99.99
2018-09-27T09:31:32.793Z,99.99
2018-09-27T09:32:32.771Z,99.99
2018-09-27T09:33:32.787Z,99.99
2018-09-27T09:34:32.728Z,99.99
2018-09-27T09:35:32.734Z,99.99
2018-09-27T09:36:32.688Z,99.99
2018-09-27T09:37:32.666Z,99.99
2018-09-27T09:38:32.647Z,99.99
2018-09-27T09:39:32.625Z,99.99
2018-09-27T09:40:32.609Z,99.99
2018-09-27T09:41:32.584Z,99.99
2018-09-27T09:42:32.563Z,99.99
2018-09-27T09:43:32.545Z,99.99
2018-09-27T09:44:33.273Z,99.99
2018-09-27T09:45:32.501Z,99.99
2018-09-27T09:46:32.481Z,99.99
2018-09-27T09:47:32.462Z,99.99
2018-09-27T09:48:32.441Z,99.99
2018-09-27T09:49:32.418Z,99.99
2018-09-27T09:50:32.399Z,99.99
2018-09-27T09:51:32.379Z,99.99
2018-09-27T09:52:32.358Z,99.99
2018-09-27T09:53:32.338Z,99.99
2018-09-27T09:54:32.316Z,99.99
2018-09-27T09:55:32.297Z,99.99
2018-09-27T09:56:32.276Z,99.99
2018-09-27T09:57:32.258Z,99.99
2018-09-27T09:58:32.234Z,99.99
2018-09-27T09:59:32.215Z,99.99
2018-09-27T10:00:32.194Z,99.99
2018-09-27T10:01:32.173Z,99.99
2018-09-27T10:02:32.214Z,99.99
2018-09-27T10:03:32.133Z,99.99
2018-09-27T10:04:32.114Z,99.99
2018-09-27T10:05:32.093Z,99.99
2018-09-27T10:06:32.071Z,99.99
2018-09-27T10:07:32.053Z,99.99
2018-09-27T10:08:32.035Z,99.99
2018-09-27T10:09:32.011Z,99.99
2018-09-27T10:10:31.992Z,99.99
2018-09-27T10:11:31.975Z,99.99
2018-09-27T10:12:31.951Z,99.99
2018-09-27T10:13:31.930Z,99.99
2018-09-27T10:14:31.911Z,99.99
2018-09-27T10:15:31.891Z,99.99
2018-09-27T10:16:31.871Z,99.99
2018-09-27T10:17:31.849Z,99.99
2018-09-27T10:18:31.830Z,99.99
2018-09-27T10:19:31.810Z,99.99
2018-09-27T10:20:31.792Z,99.87
2018-09-27T10:21:31.786Z,99.87
2018-09-27T10:22:31.754Z,99.99
2018-09-27T10:23:31.731Z,99.99
2018-09-27T10:24:31.716Z,99.99
2018-09-27T10:25:31.690Z,99.99
2018-09-27T10:26:31.670Z,99.99
2018-09-27T10:27:31.722Z,99.92
2018-09-27T10:28:31.631Z,99.15
2018-09-27T10:29:31.611Z,99.99
2018-09-27T10:30:31.591Z,99.99
2018-09-27T10:31:31.570Z,99.99
2018-09-27T10:32:31.550Z,99.73
2018-09-27T10:33:31.530Z,99.15
2018-09-27T10:34:31.564Z,98.29
2018-09-27T10:35:31.494Z,97.91
2018-09-27T10:36:31.471Z,98.43
2018-09-27T10:37:31.450Z,98.24
2018-09-27T10:38:31.431Z,99.30
2018-09-27T10:39:31.411Z,99.10
2018-09-27T10:40:31.397Z,99.10
2018-09-27T10:41:31.372Z,98.34
2018-09-27T10:42:31.353Z,97.76
2018-09-27T10:43:31.332Z,98.14
2018-09-27T10:44:31.314Z,98.53
2018-09-27T10:45:31.292Z,98.53
2018-09-27T10:46:31.273Z,98.53
2018-09-27T10:47:31.253Z,98.72
2018-09-27T10:48:31.234Z,98.43
2018-09-27T10:49:31.214Z,98.34
2018-09-27T10:50:31.194Z,98.72
2018-09-27T10:51:31.292Z,98.63
2018-09-27T10:52:31.156Z,99.58
2018-09-27T10:53:31.135Z,98.14
2018-09-27T10:54:31.116Z,97.76
2018-09-27T10:55:31.096Z,96.99
2018-09-27T10:56:31.077Z,97.38
2018-09-27T10:57:31.057Z,96.89
2018-09-27T10:58:31.038Z,97.86
2018-09-27T10:59:31.136Z,99.40
2018-09-27T11:00:30.999Z,99.78
2018-09-27T11:01:30.979Z,95.36
2018-09-27T11:02:30.962Z,95.40
2018-09-27T11:03:30.940Z,96.08
2018-09-27T11:04:30.921Z,96.94
2018-09-27T11:05:30.967Z,97.71
2018-09-27T11:06:30.881Z,96.85
2018-09-27T11:07:30.865Z,96.85
2018-09-27T11:08:30.844Z,96.37
2018-09-27T11:09:30.825Z,95.21
2018-09-27T11:10:30.804Z,94.54
2018-09-27T11:11:30.844Z,95.26
2018-09-27T11:12:30.766Z,94.78
2018-09-27T11:13:30.747Z,95.89
2018-09-27T11:14:30.728Z,95.21
2018-09-27T11:15:31.459Z,95.21
2018-09-27T11:16:30.709Z,93.53
2018-09-27T11:17:30.670Z,93.91
2018-09-27T11:18:30.649Z,93.53
2018-09-27T11:19:30.631Z,92.76
2018-09-27T11:20:30.611Z,94.01
2018-09-27T11:21:30.591Z,94.59
2018-09-27T11:22:30.573Z,95.55
2018-09-27T11:23:30.555Z,95.55
2018-09-27T11:24:30.535Z,95.94
2018-09-27T11:25:30.517Z,95.45
2018-09-27T11:26:30.496Z,94.21
2018-09-27T11:27:30.546Z,92.57
2018-09-27T11:28:30.459Z,93.05
2018-09-27T11:29:30.441Z,92.81
2018-09-27T11:30:30.423Z,94.68
2018-09-27T11:31:30.401Z,93.73
2018-09-27T11:32:30.383Z,94.49
2018-09-27T11:33:30.363Z,94.68
2018-09-27T11:34:30.344Z,93.53
2018-09-27T11:35:30.325Z,92.91
2018-09-27T11:36:30.308Z,92.52
2018-09-27T11:37:30.287Z,92.13
2018-09-27T11:38:30.327Z,91.56
2018-09-27T11:39:30.250Z,90.89
2018-09-27T11:40:30.231Z,90.79
2018-09-27T11:41:30.212Z,89.92
2018-09-27T11:42:30.292Z,89.73
2018-09-27T11:43:30.174Z,90.35
2018-09-27T11:44:30.157Z,89.58
2018-09-27T11:45:30.138Z,91.13
2018-09-27T11:46:30.117Z,91.17
2018-09-27T11:47:30.098Z,90.83
2018-09-27T11:48:30.081Z,90.83
2018-09-27T11:49:30.130Z,90.35
2018-09-27T11:50:30.045Z,89.68
2018-09-27T11:51:30.029Z,89.49
2018-09-27T11:52:30.006Z,90.64
2018-09-27T11:53:29.987Z,90.73
2018-09-27T11:54:29.967Z,90.06
2018-09-27T11:55:29.950Z,90.64
2018-09-27T11:56:29.931Z,90.45
2018-09-27T11:57:29.912Z,90.16
2018-09-27T11:58:29.892Z,90.30
2018-09-27T11:59:29.875Z,89.87
2018-09-27T12:00:29.890Z,90.30
2018-09-27T12:01:29.857Z,89.63
2018-09-27T12:02:29.819Z,88.57
2018-09-27T12:03:29.800Z,89.92
2018-09-27T12:04:29.781Z,88.09
2018-09-27T12:05:29.762Z,87.41
2018-09-27T12:06:29.773Z,89.82
2018-09-27T12:07:29.796Z,89.96
2018-09-27T12:08:29.752Z,89.72
2018-09-27T12:09:29.698Z,88.09
2018-09-27T12:10:29.671Z,88.61
2018-09-27T12:11:29.655Z,87.51
2018-09-27T12:12:29.636Z,86.93
2018-09-27T12:13:31.970Z,87.03
2018-09-27T12:14:29.616Z,86.26
2018-09-27T12:15:29.580Z,86.98
2018-09-27T12:16:29.562Z,87.55
2018-09-27T12:17:29.553Z,87.55
2018-09-27T12:18:29.523Z,88.42
2018-09-27T12:19:29.526Z,87.36
2018-09-27T12:20:29.486Z,86.69
2018-09-27T12:21:29.469Z,87.26
2018-09-27T12:22:29.450Z,88.90
2018-09-27T12:23:29.433Z,88.13
2018-09-27T12:24:29.415Z,86.69
2018-09-27T12:25:29.407Z,87.07
2018-09-27T12:26:29.379Z,86.01
2018-09-27T12:27:29.359Z,87.07
2018-09-27T12:28:29.345Z,85.47
2018-09-27T12:29:29.324Z,84.99
2018-09-27T12:30:29.305Z,85.96
2018-09-27T12:31:29.287Z,85.19
2018-09-27T12:32:29.276Z,85.38
2018-09-27T12:33:29.251Z,86.44
2018-09-27T12:34:29.232Z,87.60
2018-09-27T12:35:29.214Z,88.46
2018-09-27T12:36:29.250Z,87.98
2018-09-27T12:37:29.182Z,87.21
2018-09-27T12:38:29.261Z,85.77
2018-09-27T12:39:29.162Z,85.28
2018-09-27T12:40:29.188Z,85.19
2018-09-27T12:41:29.148Z,86.15
2018-09-27T12:42:29.173Z,85.28
2018-09-27T12:43:29.072Z,84.03
2018-09-27T12:44:29.053Z,85.33
2018-09-27T12:45:29.143Z,86.48
2018-09-27T12:46:29.138Z,85.77
2018-09-27T12:47:28.999Z,83.45
2018-09-27T12:48:29.060Z,83.94
2018-09-27T12:49:28.963Z,83.84
2018-09-27T12:50:29.726Z,84.12
2018-09-27T12:51:29.106Z,83.16
2018-09-27T12:52:29.017Z,82.87
2018-09-27T12:53:28.909Z,82.24